sensor_id;sensor_type;location;lat;lon;timestamp;temperature;humidity
65824;SHT31;52585;47.566;19.056;2023-04-16T00:00:55;9.64;77.19
65824;SHT31;52585;47.566;19.056;2023-04-16T00:03:21;9.63;77.09
65824;SHT31;52585;47.566;19.056;2023-04-16T00:05:47;9.61;77.01
65824;SHT31;52585;47.566;19.056;2023-04-16T00:08:13;9.60;76.91
65824;SHT31;52585;47.566;19.056;2023-04-16T00:10:40;9.58;76.77
65824;SHT31;52585;47.566;19.056;2023-04-16T00:13:05;9.55;76.66
65824;SHT31;52585;47.566;19.056;2023-04-16T00:15:31;9.52;76.62
65824;SHT31;52585;47.566;19.056;2023-04-16T00:17:56;9.50;76.53
65824;SHT31;52585;47.566;19.056;2023-04-16T00:20:22;9.47;76.51
65824;SHT31;52585;47.566;19.056;2023-04-16T00:22:47;9.44;76.46
65824;SHT31;52585;47.566;19.056;2023-04-16T00:25:13;9.40;76.46
65824;SHT31;52585;47.566;19.056;2023-04-16T00:27:39;9.38;76.42
65824;SHT31;52585;47.566;19.056;2023-04-16T00:30:05;9.34;76.34
65824;SHT31;52585;47.566;19.056;2023-04-16T00:32:31;9.31;76.38
65824;SHT31;52585;47.566;19.056;2023-04-16T00:34:57;9.28;76.31
65824;SHT31;52585;47.566;19.056;2023-04-16T00:37:22;9.20;76.16
65824;SHT31;52585;47.566;19.056;2023-04-16T00:39:48;9.05;76.32
65824;SHT31;52585;47.566;19.056;2023-04-16T00:42:15;8.98;76.67
65824;SHT31;52585;47.566;19.056;2023-04-16T00:44:40;8.98;76.87
65824;SHT31;52585;47.566;19.056;2023-04-16T00:47:06;8.99;76.81
65824;SHT31;52585;47.566;19.056;2023-04-16T00:49:32;8.99;76.71
65824;SHT31;52585;47.566;19.056;2023-04-16T00:51:58;8.97;76.69
65824;SHT31;52585;47.566;19.056;2023-04-16T00:54:26;8.93;76.77
65824;SHT31;52585;47.566;19.056;2023-04-16T00:56:53;8.91;76.96
65824;SHT31;52585;47.566;19.056;2023-04-16T00:59:20;8.91;77.00
65824;SHT31;52585;47.566;19.056;2023-04-16T01:01:45;8.93;76.96
65824;SHT31;52585;47.566;19.056;2023-04-16T01:04:11;8.94;76.75
65824;SHT31;52585;47.566;19.056;2023-04-16T01:06:37;8.91;76.64
65824;SHT31;52585;47.566;19.056;2023-04-16T01:09:02;8.87;76.64
65824;SHT31;52585;47.566;19.056;2023-04-16T01:11:29;8.82;76.54
65824;SHT31;52585;47.566;19.056;2023-04-16T01:13:54;8.77;76.50
65824;SHT31;52585;47.566;19.056;2023-04-16T01:16:20;8.74;76.46
65824;SHT31;52585;47.566;19.056;2023-04-16T01:18:46;8.69;76.52
65824;SHT31;52585;47.566;19.056;2023-04-16T01:21:11;8.65;76.65
65824;SHT31;52585;47.566;19.056;2023-04-16T01:23:37;8.63;76.74
65824;SHT31;52585;47.566;19.056;2023-04-16T01:26:02;8.61;76.74
65824;SHT31;52585;47.566;19.056;2023-04-16T01:28:28;8.59;76.74
65824;SHT31;52585;47.566;19.056;2023-04-16T01:30:53;8.57;76.88
65824;SHT31;52585;47.566;19.056;2023-04-16T01:33:19;8.55;76.90
65824;SHT31;52585;47.566;19.056;2023-04-16T01:35:45;8.51;76.76
65824;SHT31;52585;47.566;19.056;2023-04-16T01:38:11;8.48;76.81
65824;SHT31;52585;47.566;19.056;2023-04-16T01:40:36;8.46;76.94
65824;SHT31;52585;47.566;19.056;2023-04-16T01:43:02;8.45;76.98
65824;SHT31;52585;47.566;19.056;2023-04-16T01:45:32;8.45;76.98
65824;SHT31;52585;47.566;19.056;2023-04-16T01:48:00;8.47;77.01
65824;SHT31;52585;47.566;19.056;2023-04-16T01:50:26;8.44;76.93
65824;SHT31;52585;47.566;19.056;2023-04-16T01:52:53;8.43;77.10
65824;SHT31;52585;47.566;19.056;2023-04-16T01:55:19;8.43;77.08
65824;SHT31;52585;47.566;19.056;2023-04-16T01:57:45;8.42;77.13
65824;SHT31;52585;47.566;19.056;2023-04-16T02:00:10;8.44;77.04
65824;SHT31;52585;47.566;19.056;2023-04-16T02:02:36;8.43;76.91
65824;SHT31;52585;47.566;19.056;2023-04-16T02:05:02;8.43;76.88
65824;SHT31;52585;47.566;19.056;2023-04-16T02:07:28;8.40;76.74
65824;SHT31;52585;47.566;19.056;2023-04-16T02:09:55;8.36;76.77
65824;SHT31;52585;47.566;19.056;2023-04-16T02:12:22;8.34;76.86
65824;SHT31;52585;47.566;19.056;2023-04-16T02:14:48;8.33;76.85
65824;SHT31;52585;47.566;19.056;2023-04-16T02:17:13;8.29;77.02
65824;SHT31;52585;47.566;19.056;2023-04-16T02:19:39;8.26;77.12
65824;SHT31;52585;47.566;19.056;2023-04-16T02:22:05;8.23;77.20
65824;SHT31;52585;47.566;19.056;2023-04-16T02:24:31;8.23;77.21
65824;SHT31;52585;47.566;19.056;2023-04-16T02:26:57;8.22;77.22
65824;SHT31;52585;47.566;19.056;2023-04-16T02:29:22;8.25;77.24
65824;SHT31;52585;47.566;19.056;2023-04-16T02:31:48;8.25;77.14
65824;SHT31;52585;47.566;19.056;2023-04-16T02:34:14;8.23;77.00
65824;SHT31;52585;47.566;19.056;2023-04-16T02:36:39;8.20;77.07
65824;SHT31;52585;47.566;19.056;2023-04-16T02:39:05;8.20;76.89
65824;SHT31;52585;47.566;19.056;2023-04-16T02:41:31;8.17;77.04
65824;SHT31;52585;47.566;19.056;2023-04-16T02:43:56;8.14;77.04
65824;SHT31;52585;47.566;19.056;2023-04-16T02:46:22;8.12;77.14
65824;SHT31;52585;47.566;19.056;2023-04-16T02:48:47;8.12;77.21
65824;SHT31;52585;47.566;19.056;2023-04-16T02:51:13;8.12;77.13
65824;SHT31;52585;47.566;19.056;2023-04-16T02:53:38;8.09;77.01
65824;SHT31;52585;47.566;19.056;2023-04-16T02:56:04;8.09;77.11
65824;SHT31;52585;47.566;19.056;2023-04-16T02:58:30;8.09;77.06
65824;SHT31;52585;47.566;19.056;2023-04-16T03:00:56;8.12;77.04
65824;SHT31;52585;47.566;19.056;2023-04-16T03:03:22;8.11;76.91
65824;SHT31;52585;47.566;19.056;2023-04-16T03:05:48;8.09;76.84
65824;SHT31;52585;47.566;19.056;2023-04-16T03:08:14;8.04;76.87
65824;SHT31;52585;47.566;19.056;2023-04-16T03:10:39;8.00;76.93
65824;SHT31;52585;47.566;19.056;2023-04-16T03:13:05;7.96;76.76
65824;SHT31;52585;47.566;19.056;2023-04-16T03:15:32;7.91;76.87
65824;SHT31;52585;47.566;19.056;2023-04-16T03:17:57;7.89;76.91
65824;SHT31;52585;47.566;19.056;2023-04-16T03:20:25;7.88;76.94
65824;SHT31;52585;47.566;19.056;2023-04-16T03:22:50;7.84;76.93
65824;SHT31;52585;47.566;19.056;2023-04-16T03:25:18;7.80;77.06
65824;SHT31;52585;47.566;19.056;2023-04-16T03:27:45;7.79;77.10
65824;SHT31;52585;47.566;19.056;2023-04-16T03:30:11;7.78;76.95
65824;SHT31;52585;47.566;19.056;2023-04-16T03:32:38;7.77;76.92
65824;SHT31;52585;47.566;19.056;2023-04-16T03:35:04;7.75;76.90
65824;SHT31;52585;47.566;19.056;2023-04-16T03:37:31;7.73;76.87
65824;SHT31;52585;47.566;19.056;2023-04-16T03:39:58;7.71;76.93
65824;SHT31;52585;47.566;19.056;2023-04-16T03:42:24;7.67;76.92
65824;SHT31;52585;47.566;19.056;2023-04-16T03:44:50;7.63;77.27
65824;SHT31;52585;47.566;19.056;2023-04-16T03:47:17;7.64;77.40
65824;SHT31;52585;47.566;19.056;2023-04-16T03:49:46;7.65;77.36
65824;SHT31;52585;47.566;19.056;2023-04-16T03:52:11;7.68;77.29
65824;SHT31;52585;47.566;19.056;2023-04-16T03:54:38;7.70;77.17
65824;SHT31;52585;47.566;19.056;2023-04-16T03:57:04;7.71;77.09
65824;SHT31;52585;47.566;19.056;2023-04-16T03:59:30;7.72;77.18
65824;SHT31;52585;47.566;19.056;2023-04-16T04:01:55;7.73;77.15
65824;SHT31;52585;47.566;19.056;2023-04-16T04:04:21;7.72;77.09
65824;SHT31;52585;47.566;19.056;2023-04-16T04:06:46;7.71;77.09
65824;SHT31;52585;47.566;19.056;2023-04-16T04:09:12;7.68;77.20
65824;SHT31;52585;47.566;19.056;2023-04-16T04:11:40;7.67;77.36
65824;SHT31;52585;47.566;19.056;2023-04-16T04:14:07;7.65;77.60
65824;SHT31;52585;47.566;19.056;2023-04-16T04:16:33;7.66;77.82
65824;SHT31;52585;47.566;19.056;2023-04-16T04:18:59;7.67;77.87
65824;SHT31;52585;47.566;19.056;2023-04-16T04:21:28;7.69;78.01
65824;SHT31;52585;47.566;19.056;2023-04-16T04:23:55;7.73;78.07
65824;SHT31;52585;47.566;19.056;2023-04-16T04:26:21;7.74;77.96
65824;SHT31;52585;47.566;19.056;2023-04-16T04:28:46;7.73;77.91
65824;SHT31;52585;47.566;19.056;2023-04-16T04:31:12;7.74;78.10
65824;SHT31;52585;47.566;19.056;2023-04-16T04:33:38;7.78;77.89
65824;SHT31;52585;47.566;19.056;2023-04-16T04:36:04;7.79;77.81
65824;SHT31;52585;47.566;19.056;2023-04-16T04:38:30;7.79;77.81
65824;SHT31;52585;47.566;19.056;2023-04-16T04:40:56;7.81;78.14
65824;SHT31;52585;47.566;19.056;2023-04-16T04:43:22;7.82;78.33
65824;SHT31;52585;47.566;19.056;2023-04-16T04:45:48;7.87;78.53
65824;SHT31;52585;47.566;19.056;2023-04-16T04:48:14;7.90;78.43
65824;SHT31;52585;47.566;19.056;2023-04-16T04:50:40;7.92;78.45
65824;SHT31;52585;47.566;19.056;2023-04-16T04:53:06;7.95;78.44
65824;SHT31;52585;47.566;19.056;2023-04-16T04:55:36;7.97;78.68
65824;SHT31;52585;47.566;19.056;2023-04-16T04:58:03;8.03;78.76
65824;SHT31;52585;47.566;19.056;2023-04-16T05:00:30;8.05;78.62
65824;SHT31;52585;47.566;19.056;2023-04-16T05:02:57;8.10;78.68
65824;SHT31;52585;47.566;19.056;2023-04-16T05:05:27;8.11;78.87
65824;SHT31;52585;47.566;19.056;2023-04-16T05:07:53;8.15;78.69
65824;SHT31;52585;47.566;19.056;2023-04-16T05:10:19;8.17;78.60
65824;SHT31;52585;47.566;19.056;2023-04-16T05:12:45;8.18;78.62
65824;SHT31;52585;47.566;19.056;2023-04-16T05:15:15;8.19;78.86
65824;SHT31;52585;47.566;19.056;2023-04-16T05:17:41;8.24;79.07
65824;SHT31;52585;47.566;19.056;2023-04-16T05:20:10;8.28;79.05
65824;SHT31;52585;47.566;19.056;2023-04-16T05:22:35;8.32;79.14
65824;SHT31;52585;47.566;19.056;2023-04-16T05:25:01;8.36;79.24
65824;SHT31;52585;47.566;19.056;2023-04-16T05:27:27;8.39;79.32
65824;SHT31;52585;47.566;19.056;2023-04-16T05:29:52;8.43;79.46
65824;SHT31;52585;47.566;19.056;2023-04-16T05:32:18;8.46;79.53
65824;SHT31;52585;47.566;19.056;2023-04-16T05:34:43;8.50;79.45
65824;SHT31;52585;47.566;19.056;2023-04-16T05:37:09;8.59;79.39
65824;SHT31;52585;47.566;19.056;2023-04-16T05:39:34;8.65;79.26
65824;SHT31;52585;47.566;19.056;2023-04-16T05:42:00;8.70;79.12
65824;SHT31;52585;47.566;19.056;2023-04-16T05:44:25;8.76;79.38
65824;SHT31;52585;47.566;19.056;2023-04-16T05:46:51;8.79;79.28
65824;SHT31;52585;47.566;19.056;2023-04-16T05:49:17;8.82;79.27
65824;SHT31;52585;47.566;19.056;2023-04-16T05:51:46;8.86;79.18
65824;SHT31;52585;47.566;19.056;2023-04-16T05:54:13;8.87;79.16
65824;SHT31;52585;47.566;19.056;2023-04-16T05:56:38;8.83;79.22
65824;SHT31;52585;47.566;19.056;2023-04-16T05:59:04;8.86;79.30
65824;SHT31;52585;47.566;19.056;2023-04-16T06:01:30;8.92;79.18
65824;SHT31;52585;47.566;19.056;2023-04-16T06:03:56;8.94;78.88
65824;SHT31;52585;47.566;19.056;2023-04-16T06:06:22;8.93;78.99
65824;SHT31;52585;47.566;19.056;2023-04-16T06:08:48;8.90;79.21
65824;SHT31;52585;47.566;19.056;2023-04-16T06:11:13;8.91;79.36
65824;SHT31;52585;47.566;19.056;2023-04-16T06:13:39;8.94;79.42
65824;SHT31;52585;47.566;19.056;2023-04-16T06:16:04;9.01;79.54
65824;SHT31;52585;47.566;19.056;2023-04-16T06:18:30;9.08;79.60
65824;SHT31;52585;47.566;19.056;2023-04-16T06:20:56;9.14;79.23
65824;SHT31;52585;47.566;19.056;2023-04-16T06:23:23;9.19;79.15
65824;SHT31;52585;47.566;19.056;2023-04-16T06:25:49;9.23;79.18
65824;SHT31;52585;47.566;19.056;2023-04-16T06:28:14;9.25;79.12
65824;SHT31;52585;47.566;19.056;2023-04-16T06:30:40;9.30;79.07
65824;SHT31;52585;47.566;19.056;2023-04-16T06:33:05;9.35;79.13
65824;SHT31;52585;47.566;19.056;2023-04-16T06:35:31;9.40;78.96
65824;SHT31;52585;47.566;19.056;2023-04-16T06:37:56;9.45;78.91
65824;SHT31;52585;47.566;19.056;2023-04-16T06:40:22;9.50;78.87
65824;SHT31;52585;47.566;19.056;2023-04-16T06:42:48;9.55;78.84
65824;SHT31;52585;47.566;19.056;2023-04-16T06:45:13;9.62;78.81
65824;SHT31;52585;47.566;19.056;2023-04-16T06:47:39;9.67;78.76
65824;SHT31;52585;47.566;19.056;2023-04-16T06:50:05;9.72;78.51
65824;SHT31;52585;47.566;19.056;2023-04-16T06:52:31;9.76;78.47
65824;SHT31;52585;47.566;19.056;2023-04-16T06:54:57;9.79;78.47
65824;SHT31;52585;47.566;19.056;2023-04-16T06:57:22;9.83;78.43
65824;SHT31;52585;47.566;19.056;2023-04-16T06:59:48;9.88;78.43
65824;SHT31;52585;47.566;19.056;2023-04-16T07:02:14;9.94;78.81
65824;SHT31;52585;47.566;19.056;2023-04-16T07:04:39;10.00;78.52
65824;SHT31;52585;47.566;19.056;2023-04-16T07:07:05;10.06;78.36
65824;SHT31;52585;47.566;19.056;2023-04-16T07:09:30;10.13;78.51
65824;SHT31;52585;47.566;19.056;2023-04-16T07:11:56;10.20;78.35
65824;SHT31;52585;47.566;19.056;2023-04-16T07:14:21;10.28;78.32
65824;SHT31;52585;47.566;19.056;2023-04-16T07:16:47;10.34;78.08
65824;SHT31;52585;47.566;19.056;2023-04-16T07:19:12;10.42;77.91
65824;SHT31;52585;47.566;19.056;2023-04-16T07:21:38;10.47;77.95
65824;SHT31;52585;47.566;19.056;2023-04-16T07:24:06;10.55;78.09
65824;SHT31;52585;47.566;19.056;2023-04-16T07:26:31;10.60;77.79
65824;SHT31;52585;47.566;19.056;2023-04-16T07:28:57;10.66;77.95
65824;SHT31;52585;47.566;19.056;2023-04-16T07:31:22;10.72;77.66
65824;SHT31;52585;47.566;19.056;2023-04-16T07:33:47;10.78;77.28
65824;SHT31;52585;47.566;19.056;2023-04-16T07:36:13;10.83;77.09
65824;SHT31;52585;47.566;19.056;2023-04-16T07:38:39;10.88;76.91
65824;SHT31;52585;47.566;19.056;2023-04-16T07:41:04;10.94;76.90
65824;SHT31;52585;47.566;19.056;2023-04-16T07:43:30;10.97;76.75
65824;SHT31;52585;47.566;19.056;2023-04-16T07:45:55;11.00;76.73
65824;SHT31;52585;47.566;19.056;2023-04-16T07:48:21;11.03;76.61
65824;SHT31;52585;47.566;19.056;2023-04-16T07:50:46;11.05;76.63
65824;SHT31;52585;47.566;19.056;2023-04-16T07:53:12;11.09;76.53
65824;SHT31;52585;47.566;19.056;2023-04-16T07:55:37;11.13;76.47
65824;SHT31;52585;47.566;19.056;2023-04-16T07:58:03;11.18;76.55
65824;SHT31;52585;47.566;19.056;2023-04-16T08:00:30;11.23;76.39
65824;SHT31;52585;47.566;19.056;2023-04-16T08:02:56;11.29;76.41
65824;SHT31;52585;47.566;19.056;2023-04-16T08:05:22;11.35;76.32
65824;SHT31;52585;47.566;19.056;2023-04-16T08:07:48;11.39;76.12
65824;SHT31;52585;47.566;19.056;2023-04-16T08:10:13;11.44;76.21
65824;SHT31;52585;47.566;19.056;2023-04-16T08:12:39;11.51;76.09
65824;SHT31;52585;47.566;19.056;2023-04-16T08:15:05;11.56;76.01
65824;SHT31;52585;47.566;19.056;2023-04-16T08:17:32;11.58;75.72
65824;SHT31;52585;47.566;19.056;2023-04-16T08:19:59;11.62;75.73
65824;SHT31;52585;47.566;19.056;2023-04-16T08:22:24;11.67;75.72
65824;SHT31;52585;47.566;19.056;2023-04-16T08:24:50;11.69;75.72
65824;SHT31;52585;47.566;19.056;2023-04-16T08:27:16;11.76;75.67
65824;SHT31;52585;47.566;19.056;2023-04-16T08:29:42;11.82;75.65
65824;SHT31;52585;47.566;19.056;2023-04-16T08:32:07;11.91;75.60
65824;SHT31;52585;47.566;19.056;2023-04-16T08:34:36;11.99;75.40
65824;SHT31;52585;47.566;19.056;2023-04-16T08:37:01;12.09;75.18
65824;SHT31;52585;47.566;19.056;2023-04-16T08:39:27;12.18;74.98
65824;SHT31;52585;47.566;19.056;2023-04-16T08:41:53;12.22;74.67
65824;SHT31;52585;47.566;19.056;2023-04-16T08:44:27;12.27;74.56
65824;SHT31;52585;47.566;19.056;2023-04-16T08:46:58;12.31;74.24
65824;SHT31;52585;47.566;19.056;2023-04-16T08:49:26;12.37;74.28
65824;SHT31;52585;47.566;19.056;2023-04-16T08:51:53;12.43;74.15
65824;SHT31;52585;47.566;19.056;2023-04-16T08:57:12;12.55;74.05
65824;SHT31;52585;47.566;19.056;2023-04-16T08:59:46;12.62;74.02
65824;SHT31;52585;47.566;19.056;2023-04-16T09:02:14;12.67;74.03
65824;SHT31;52585;47.566;19.056;2023-04-16T09:04:40;12.74;74.04
65824;SHT31;52585;47.566;19.056;2023-04-16T09:07:07;12.80;73.88
65824;SHT31;52585;47.566;19.056;2023-04-16T09:09:33;12.84;73.40
65824;SHT31;52585;47.566;19.056;2023-04-16T09:11:59;12.90;73.28
65824;SHT31;52585;47.566;19.056;2023-04-16T09:14:25;12.92;73.14
65824;SHT31;52585;47.566;19.056;2023-04-16T09:16:52;12.97;73.10
65824;SHT31;52585;47.566;19.056;2023-04-16T09:19:19;13.02;73.13
65824;SHT31;52585;47.566;19.056;2023-04-16T09:21:45;13.07;73.01
65824;SHT31;52585;47.566;19.056;2023-04-16T09:24:12;13.11;72.86
65824;SHT31;52585;47.566;19.056;2023-04-16T09:26:39;13.14;72.66
65824;SHT31;52585;47.566;19.056;2023-04-16T09:29:07;13.17;72.53
65824;SHT31;52585;47.566;19.056;2023-04-16T09:31:33;13.18;72.42
65824;SHT31;52585;47.566;19.056;2023-04-16T09:33:59;13.21;72.47
65824;SHT31;52585;47.566;19.056;2023-04-16T09:36:32;13.24;72.11
65824;SHT31;52585;47.566;19.056;2023-04-16T09:39:00;13.28;71.92
65824;SHT31;52585;47.566;19.056;2023-04-16T09:41:31;13.30;72.02
65824;SHT31;52585;47.566;19.056;2023-04-16T09:44:03;13.33;71.87
65824;SHT31;52585;47.566;19.056;2023-04-16T09:46:30;13.36;71.74
65824;SHT31;52585;47.566;19.056;2023-04-16T09:49:04;13.39;71.77
65824;SHT31;52585;47.566;19.056;2023-04-16T09:51:40;13.40;71.68
65824;SHT31;52585;47.566;19.056;2023-04-16T09:54:11;13.41;71.50
65824;SHT31;52585;47.566;19.056;2023-04-16T09:56:41;13.43;71.30
65824;SHT31;52585;47.566;19.056;2023-04-16T10:01:45;13.44;71.36
65824;SHT31;52585;47.566;19.056;2023-04-16T10:04:11;13.46;71.44
65824;SHT31;52585;47.566;19.056;2023-04-16T10:06:36;13.49;71.22
65824;SHT31;52585;47.566;19.056;2023-04-16T10:09:04;13.51;71.17
65824;SHT31;52585;47.566;19.056;2023-04-16T10:11:32;13.55;71.19
65824;SHT31;52585;47.566;19.056;2023-04-16T10:13:59;13.56;71.05
65824;SHT31;52585;47.566;19.056;2023-04-16T10:16:25;13.58;70.99
65824;SHT31;52585;47.566;19.056;2023-04-16T10:18:51;13.62;70.96
65824;SHT31;52585;47.566;19.056;2023-04-16T10:21:21;13.64;71.01
65824;SHT31;52585;47.566;19.056;2023-04-16T10:23:46;13.67;71.05
65824;SHT31;52585;47.566;19.056;2023-04-16T10:26:13;13.69;70.95
65824;SHT31;52585;47.566;19.056;2023-04-16T10:28:41;13.72;70.92
65824;SHT31;52585;47.566;19.056;2023-04-16T10:31:09;13.74;70.77
65824;SHT31;52585;47.566;19.056;2023-04-16T10:33:39;13.77;70.84
65824;SHT31;52585;47.566;19.056;2023-04-16T10:38:33;13.85;70.89
65824;SHT31;52585;47.566;19.056;2023-04-16T10:41:03;13.89;70.50
65824;SHT31;52585;47.566;19.056;2023-04-16T10:43:32;13.96;70.49
65824;SHT31;52585;47.566;19.056;2023-04-16T10:46:16;14.03;70.51
65824;SHT31;52585;47.566;19.056;2023-04-16T10:48:59;14.13;70.43
65824;SHT31;52585;47.566;19.056;2023-04-16T10:53:56;14.29;69.93
65824;SHT31;52585;47.566;19.056;2023-04-16T10:56:43;14.37;69.82
65824;SHT31;52585;47.566;19.056;2023-04-16T10:59:11;14.42;69.86
65824;SHT31;52585;47.566;19.056;2023-04-16T11:01:40;14.48;69.73
65824;SHT31;52585;47.566;19.056;2023-04-16T11:10:25;14.66;69.28
65824;SHT31;52585;47.566;19.056;2023-04-16T11:12:37;14.72;69.17
65824;SHT31;52585;47.566;19.056;2023-04-16T11:17:48;14.88;68.93
65824;SHT31;52585;47.566;19.056;2023-04-16T11:20:17;14.93;68.45
65824;SHT31;52585;47.566;19.056;2023-04-16T11:22:52;14.99;68.17
65824;SHT31;52585;47.566;19.056;2023-04-16T11:25:20;15.08;68.34
65824;SHT31;52585;47.566;19.056;2023-04-16T11:27:51;15.17;68.09
65824;SHT31;52585;47.566;19.056;2023-04-16T11:30:18;15.24;68.17
65824;SHT31;52585;47.566;19.056;2023-04-16T11:33:02;15.27;67.85
65824;SHT31;52585;47.566;19.056;2023-04-16T11:35:33;15.30;67.54
65824;SHT31;52585;47.566;19.056;2023-04-16T11:37:59;15.30;67.60
65824;SHT31;52585;47.566;19.056;2023-04-16T11:40:28;15.30;67.61
65824;SHT31;52585;47.566;19.056;2023-04-16T11:42:55;15.31;67.58
65824;SHT31;52585;47.566;19.056;2023-04-16T11:45:27;15.31;67.31
65824;SHT31;52585;47.566;19.056;2023-04-16T11:47:53;15.32;67.26
65824;SHT31;52585;47.566;19.056;2023-04-16T11:50:22;15.31;67.24
65824;SHT31;52585;47.566;19.056;2023-04-16T11:52:55;15.31;67.03
65824;SHT31;52585;47.566;19.056;2023-04-16T11:55:27;15.33;67.00
65824;SHT31;52585;47.566;19.056;2023-04-16T11:57:53;15.36;66.84
65824;SHT31;52585;47.566;19.056;2023-04-16T12:00:19;15.38;66.98
65824;SHT31;52585;47.566;19.056;2023-04-16T12:02:49;15.41;66.97
65824;SHT31;52585;47.566;19.056;2023-04-16T12:08:07;15.45;66.32
65824;SHT31;52585;47.566;19.056;2023-04-16T12:10:39;15.47;66.17
65824;SHT31;52585;47.566;19.056;2023-04-16T12:13:19;15.55;65.77
65824;SHT31;52585;47.566;19.056;2023-04-16T12:15:48;15.60;65.98
65824;SHT31;52585;47.566;19.056;2023-04-16T12:18:17;15.63;65.84
65824;SHT31;52585;47.566;19.056;2023-04-16T12:20:47;15.67;65.64
65824;SHT31;52585;47.566;19.056;2023-04-16T12:25:54;15.72;65.40
65824;SHT31;52585;47.566;19.056;2023-04-16T12:28:27;15.74;65.25
65824;SHT31;52585;47.566;19.056;2023-04-16T12:30:57;15.77;65.22
65824;SHT31;52585;47.566;19.056;2023-04-16T12:33:23;15.80;64.91
65824;SHT31;52585;47.566;19.056;2023-04-16T12:35:49;15.82;64.96
65824;SHT31;52585;47.566;19.056;2023-04-16T12:38:15;15.84;64.98
65824;SHT31;52585;47.566;19.056;2023-04-16T12:40:41;15.85;64.47
65824;SHT31;52585;47.566;19.056;2023-04-16T12:43:08;15.84;64.49
65824;SHT31;52585;47.566;19.056;2023-04-16T12:45:34;15.84;64.26
65824;SHT31;52585;47.566;19.056;2023-04-16T12:48:02;15.86;64.17
65824;SHT31;52585;47.566;19.056;2023-04-16T12:50:28;15.84;64.33
65824;SHT31;52585;47.566;19.056;2023-04-16T12:52:54;15.84;64.23
65824;SHT31;52585;47.566;19.056;2023-04-16T12:55:20;15.85;64.36
65824;SHT31;52585;47.566;19.056;2023-04-16T12:57:46;15.84;64.32
65824;SHT31;52585;47.566;19.056;2023-04-16T13:00:18;15.87;64.32
65824;SHT31;52585;47.566;19.056;2023-04-16T13:02:47;15.89;64.13
65824;SHT31;52585;47.566;19.056;2023-04-16T13:05:12;15.89;63.96
65824;SHT31;52585;47.566;19.056;2023-04-16T13:07:43;15.92;64.03
65824;SHT31;52585;47.566;19.056;2023-04-16T13:10:09;15.93;63.95
65824;SHT31;52585;47.566;19.056;2023-04-16T13:12:35;15.96;63.53
65824;SHT31;52585;47.566;19.056;2023-04-16T13:15:01;15.98;63.95
65824;SHT31;52585;47.566;19.056;2023-04-16T13:17:27;15.99;64.04
65824;SHT31;52585;47.566;19.056;2023-04-16T13:19:52;16.00;63.67
65824;SHT31;52585;47.566;19.056;2023-04-16T13:22:18;16.00;63.39
65824;SHT31;52585;47.566;19.056;2023-04-16T13:24:44;16.00;63.18
65824;SHT31;52585;47.566;19.056;2023-04-16T13:27:10;16.01;63.33
65824;SHT31;52585;47.566;19.056;2023-04-16T13:29:36;16.00;63.37
65824;SHT31;52585;47.566;19.056;2023-04-16T13:32:02;15.99;63.18
65824;SHT31;52585;47.566;19.056;2023-04-16T13:34:28;15.99;62.85
65824;SHT31;52585;47.566;19.056;2023-04-16T13:36:54;15.99;62.99
65824;SHT31;52585;47.566;19.056;2023-04-16T13:39:20;15.97;62.90
65824;SHT31;52585;47.566;19.056;2023-04-16T13:41:46;15.98;62.95
65824;SHT31;52585;47.566;19.056;2023-04-16T13:44:13;15.97;62.82
65824;SHT31;52585;47.566;19.056;2023-04-16T13:46:39;15.97;62.96
65824;SHT31;52585;47.566;19.056;2023-04-16T13:49:07;15.97;62.73
65824;SHT31;52585;47.566;19.056;2023-04-16T13:51:33;15.97;63.05
65824;SHT31;52585;47.566;19.056;2023-04-16T13:53:58;15.96;63.01
65824;SHT31;52585;47.566;19.056;2023-04-16T13:56:24;15.96;63.04
65824;SHT31;52585;47.566;19.056;2023-04-16T13:58:50;15.95;62.80
65824;SHT31;52585;47.566;19.056;2023-04-16T14:01:16;15.94;62.75
65824;SHT31;52585;47.566;19.056;2023-04-16T14:03:42;15.95;62.70
65824;SHT31;52585;47.566;19.056;2023-04-16T14:06:08;15.95;62.57
65824;SHT31;52585;47.566;19.056;2023-04-16T14:08:34;15.95;62.64
65824;SHT31;52585;47.566;19.056;2023-04-16T14:10:59;15.94;62.85
65824;SHT31;52585;47.566;19.056;2023-04-16T14:13:26;15.95;62.87
65824;SHT31;52585;47.566;19.056;2023-04-16T14:15:54;15.94;62.62
65824;SHT31;52585;47.566;19.056;2023-04-16T14:18:19;15.94;62.71
65824;SHT31;52585;47.566;19.056;2023-04-16T14:20:46;15.95;62.67
65824;SHT31;52585;47.566;19.056;2023-04-16T14:23:12;15.95;62.63
65824;SHT31;52585;47.566;19.056;2023-04-16T14:25:38;15.95;62.52
65824;SHT31;52585;47.566;19.056;2023-04-16T14:28:04;15.94;62.46
65824;SHT31;52585;47.566;19.056;2023-04-16T14:30:30;15.95;62.30
65824;SHT31;52585;47.566;19.056;2023-04-16T14:32:55;15.96;62.06
65824;SHT31;52585;47.566;19.056;2023-04-16T14:35:21;15.95;61.79
65824;SHT31;52585;47.566;19.056;2023-04-16T14:37:47;15.94;61.63
65824;SHT31;52585;47.566;19.056;2023-04-16T14:40:14;15.94;61.87
65824;SHT31;52585;47.566;19.056;2023-04-16T14:42:40;15.95;61.29
65824;SHT31;52585;47.566;19.056;2023-04-16T14:45:06;15.95;61.16
65824;SHT31;52585;47.566;19.056;2023-04-16T14:47:33;15.94;61.14
65824;SHT31;52585;47.566;19.056;2023-04-16T14:49:59;15.94;61.18
65824;SHT31;52585;47.566;19.056;2023-04-16T14:52:26;15.94;61.01
65824;SHT31;52585;47.566;19.056;2023-04-16T14:54:52;15.95;60.73
65824;SHT31;52585;47.566;19.056;2023-04-16T14:57:19;15.94;60.82
65824;SHT31;52585;47.566;19.056;2023-04-16T14:59:46;15.94;60.92
65824;SHT31;52585;47.566;19.056;2023-04-16T15:02:12;15.92;60.63
65824;SHT31;52585;47.566;19.056;2023-04-16T15:04:39;15.93;60.68
65824;SHT31;52585;47.566;19.056;2023-04-16T15:07:05;15.92;60.76
65824;SHT31;52585;47.566;19.056;2023-04-16T15:09:32;15.92;60.39
65824;SHT31;52585;47.566;19.056;2023-04-16T15:11:59;15.92;60.52
65824;SHT31;52585;47.566;19.056;2023-04-16T15:14:24;15.92;60.20
65824;SHT31;52585;47.566;19.056;2023-04-16T15:16:50;15.93;60.57
65824;SHT31;52585;47.566;19.056;2023-04-16T15:19:16;15.92;60.35
65824;SHT31;52585;47.566;19.056;2023-04-16T15:21:42;15.92;60.66
65824;SHT31;52585;47.566;19.056;2023-04-16T15:24:08;15.93;60.48
65824;SHT31;52585;47.566;19.056;2023-04-16T15:26:34;15.92;60.47
65824;SHT31;52585;47.566;19.056;2023-04-16T15:29:00;15.92;60.47
65824;SHT31;52585;47.566;19.056;2023-04-16T15:31:25;15.91;59.91
65824;SHT31;52585;47.566;19.056;2023-04-16T15:33:51;15.92;59.60
65824;SHT31;52585;47.566;19.056;2023-04-16T15:36:18;15.92;59.24
65824;SHT31;52585;47.566;19.056;2023-04-16T15:38:45;15.97;58.89
65824;SHT31;52585;47.566;19.056;2023-04-16T15:41:11;15.99;59.21
65824;SHT31;52585;47.566;19.056;2023-04-16T15:43:38;16.01;58.84